Terminal Aerodrome Forecast
Issued by NWS

Home | Current Version | Previous Version | Text Only | Print | Product List | Glossary On
Versions: 1 2 3 4 5 6 7 8 9 10 11 12 13 14 15 16
896
FTUS43 KJKL 161345 AAA
TAFSME
TAF AMD
KSME 161345Z 1614/1712 32010KT P6SM BKN016
     FM161600 36006KT P6SM SCT030
     FM170100 VRB03KT P6SM SKC
     FM170800 VRB03KT 3SM BR SKC
     FM171000 VRB03KT 3/4SM BR SKC=

USA.gov is the U.S. government's official web portal to all federal, state and local government web resources and services.